createdAt,value
2019-04-24T00:02:01.986Z,9.65
2019-04-24T00:04:43.907Z,9.73
2019-04-24T00:06:57.667Z,9.73
2019-04-24T00:09:21.839Z,9.90
2019-04-24T00:17:17.704Z,10.20
2019-04-24T00:19:58.583Z,11.12
2019-04-24T00:25:03.300Z,9.63
2019-04-24T00:27:21.841Z,10.18
2019-04-24T00:30:01.888Z,10.68
2019-04-24T00:34:54.386Z,10.65
2019-04-24T00:37:40.782Z,11.05
2019-04-24T00:42:35.817Z,11.93
2019-04-24T00:47:36.388Z,10.95
2019-04-24T00:52:20.101Z,10.80
2019-04-24T00:54:55.709Z,11.80
2019-04-24T00:59:48.573Z,11.88
2019-04-24T01:23:15.372Z,13.45
2019-04-24T01:28:02.966Z,12.60
2019-04-24T01:30:46.962Z,13.15
2019-04-24T01:33:22.719Z,13.28
2019-04-24T01:35:50.891Z,13.75
2019-04-24T01:40:53.909Z,14.10
2019-04-24T01:45:54.257Z,14.07
2019-04-24T01:53:18.775Z,14.30
2019-04-24T01:55:57.622Z,14.20
2019-04-24T01:58:25.881Z,13.75
2019-04-24T02:01:05.019Z,14.50
2019-04-24T02:03:20.485Z,14.98
2019-04-24T02:06:00.248Z,13.88
2019-04-24T02:11:28.445Z,13.78
2019-04-24T02:16:00.981Z,13.15
2019-04-24T02:18:43.544Z,14.00
2019-04-24T02:21:04.268Z,13.32
2019-04-24T02:23:39.932Z,14.40
2019-04-24T02:28:37.463Z,14.07
2019-04-24T02:31:22.239Z,13.35
2019-04-24T02:41:44.610Z,12.78
2019-04-24T02:44:32.026Z,13.68
2019-04-24T02:46:51.891Z,14.23
2019-04-24T02:51:45.716Z,14.28
2019-04-24T02:54:29.224Z,13.72
2019-04-24T02:56:43.686Z,14.25
2019-04-24T03:01:44.677Z,13.78
2019-04-24T03:07:00.286Z,13.45
2019-04-24T03:12:22.864Z,12.85
2019-04-24T03:14:30.796Z,13.48
2019-04-24T03:17:20.006Z,13.60
2019-04-24T03:19:45.959Z,13.72
2019-04-24T03:27:27.381Z,12.70
2019-04-24T03:40:44.300Z,13.60
2019-04-24T03:47:52.201Z,13.05
2019-04-24T03:50:49.603Z,12.37
2019-04-24T03:53:00.716Z,12.07
2019-04-24T03:55:35.497Z,12.80
2019-04-24T03:58:06.376Z,13.08
2019-04-24T04:00:44.625Z,12.90
2019-04-24T04:03:04.683Z,13.43
2019-04-24T04:08:29.707Z,13.18
2019-04-24T04:10:34.458Z,13.32
2019-04-24T04:15:26.553Z,13.38
2019-04-24T04:25:58.370Z,14.10
2019-04-24T04:31:24.475Z,14.05
2019-04-24T04:34:07.563Z,14.28
2019-04-24T04:41:29.716Z,12.68
2019-04-24T04:46:45.274Z,12.50
2019-04-24T04:49:38.316Z,12.67
2019-04-24T04:51:44.004Z,12.63
2019-04-24T04:54:59.210Z,12.82
2019-04-24T04:56:51.443Z,12.43
2019-04-24T04:59:36.265Z,12.43
2019-04-24T05:02:02.840Z,12.05
2019-04-24T05:04:45.330Z,12.73
2019-04-24T05:17:07.987Z,11.30
2019-04-24T05:22:08.106Z,11.20
2019-04-24T05:24:36.259Z,10.58
2019-04-24T05:29:46.752Z,11.48
2019-04-24T05:32:34.754Z,10.30
2019-04-24T05:40:24.747Z,11.93
2019-04-24T05:45:22.931Z,11.43
2019-04-24T05:47:56.128Z,11.90
2019-04-24T05:50:43.449Z,11.65
2019-04-24T05:58:24.596Z,10.82
2019-04-24T06:01:02.834Z,11.00
2019-04-24T06:06:36.067Z,11.80
2019-04-24T06:08:54.394Z,9.88
2019-04-24T06:11:36.457Z,10.08
2019-04-24T06:13:44.635Z,9.90
2019-04-24T06:16:48.439Z,9.43
2019-04-24T06:19:19.441Z,9.78
2019-04-24T06:21:40.234Z,8.45
2019-04-24T06:32:14.313Z,8.73
2019-04-24T06:34:20.041Z,8.45
2019-04-24T06:39:43.929Z,7.80
2019-04-24T06:47:41.480Z,6.87
2019-04-24T06:49:25.946Z,6.87
2019-04-24T07:00:05.725Z,5.67
2019-04-24T07:02:38.810Z,5.78
2019-04-24T07:07:52.389Z,6.10
2019-04-24T07:13:49.209Z,6.22
2019-04-24T07:18:29.907Z,5.95
2019-04-24T07:23:38.606Z,5.15
2019-04-24T07:26:16.582Z,5.40
2019-04-24T07:33:57.343Z,5.95
2019-04-24T07:36:38.947Z,5.75
2019-04-24T07:38:53.866Z,5.80
2019-04-24T07:41:45.488Z,5.72
2019-04-24T07:46:35.455Z,6.67
2019-04-24T07:54:14.687Z,5.45
2019-04-24T07:59:43.088Z,6.33
2019-04-24T08:04:43.672Z,4.75
2019-04-24T08:20:10.388Z,5.22
2019-04-24T08:25:05.631Z,4.20
2019-04-24T08:27:39.547Z,4.55
2019-04-24T08:32:33.123Z,4.20
2019-04-24T08:34:52.119Z,3.50
2019-04-24T08:37:53.915Z,3.25
2019-04-24T08:40:47.990Z,3.33
2019-04-24T08:43:10.017Z,3.10
2019-04-24T08:48:12.413Z,3.42
2019-04-24T08:53:07.656Z,3.35
2019-04-24T09:08:42.138Z,2.58
2019-04-24T09:11:29.559Z,3.00
2019-04-24T09:14:00.535Z,2.80
2019-04-24T09:16:41.435Z,3.20
2019-04-24T09:19:02.917Z,2.80
2019-04-24T09:21:23.496Z,3.45
2019-04-24T09:31:50.203Z,2.42
2019-04-24T09:34:02.319Z,3.20
2019-04-24T09:36:53.252Z,2.15
2019-04-24T09:39:27.702Z,3.02
2019-04-24T09:42:05.060Z,3.47
2019-04-24T09:44:11.239Z,2.92
2019-04-24T09:49:13.485Z,2.12
2019-04-24T09:51:58.721Z,2.40
2019-04-24T09:54:33.253Z,2.27
2019-04-24T09:57:10.283Z,2.10
2019-04-24T09:59:28.749Z,2.42
2019-04-24T10:02:22.023Z,2.75
2019-04-24T10:04:59.504Z,2.40
2019-04-24T10:10:00.316Z,2.52
2019-04-24T10:14:58.723Z,2.10
2019-04-24T10:17:33.252Z,2.62
2019-04-24T10:22:45.804Z,2.77
2019-04-24T10:25:12.165Z,2.47
2019-04-24T10:30:22.015Z,1.98
2019-04-24T10:32:57.994Z,2.55
2019-04-24T10:35:42.129Z,3.00
2019-04-24T10:38:23.198Z,3.00
2019-04-24T10:40:55.430Z,3.17
2019-04-24T10:43:25.115Z,2.37
2019-04-24T10:45:58.235Z,2.40
2019-04-24T10:48:51.090Z,2.27
2019-04-24T10:51:45.543Z,2.37
2019-04-24T10:53:48.747Z,2.70
2019-04-24T10:58:45.372Z,2.70
2019-04-24T11:01:23.696Z,2.50
2019-04-24T11:04:03.143Z,2.60
2019-04-24T11:06:36.615Z,2.90
2019-04-24T11:09:17.075Z,2.15
2019-04-24T11:11:45.711Z,2.70
2019-04-24T11:17:11.244Z,2.92
2019-04-24T11:19:35.770Z,3.00
2019-04-24T11:22:07.602Z,3.00
2019-04-24T11:24:39.502Z,2.55
2019-04-24T11:27:14.013Z,2.85
2019-04-24T11:30:02.154Z,3.10
2019-04-24T11:35:17.253Z,2.75
2019-04-24T11:37:32.932Z,2.47
2019-04-24T11:40:26.751Z,2.25
2019-04-24T11:50:53.578Z,2.50
2019-04-24T11:53:10.678Z,2.37
2019-04-24T12:00:31.933Z,2.56
2019-04-24T12:03:14.370Z,2.58
2019-04-24T12:05:57.527Z,2.47
2019-04-24T12:08:55.096Z,2.20
2019-04-24T12:11:31.061Z,2.40
2019-04-24T12:19:02.319Z,2.47
2019-04-24T12:24:05.848Z,2.37
2019-04-24T12:31:51.166Z,1.90
2019-04-24T12:34:11.690Z,2.12
2019-04-24T12:36:52.195Z,2.05
2019-04-24T12:39:07.934Z,2.08
2019-04-24T12:41:44.321Z,2.15
2019-04-24T12:44:28.303Z,1.92
2019-04-24T12:52:00.324Z,2.37
2019-04-24T12:57:27.611Z,2.00
2019-04-24T12:59:48.122Z,2.20
2019-04-24T13:05:19.733Z,1.98
2019-04-24T13:12:58.759Z,2.27
2019-04-24T13:15:52.196Z,1.70
2019-04-24T13:18:11.457Z,1.80
2019-04-24T13:20:17.532Z,2.20
2019-04-24T13:22:53.122Z,1.37
2019-04-24T13:25:43.187Z,1.50
2019-04-24T13:28:39.664Z,1.40
2019-04-24T13:31:13.984Z,1.30
2019-04-24T13:33:39.251Z,1.30
2019-04-24T13:38:45.224Z,1.42
2019-04-24T13:41:00.186Z,1.27
2019-04-24T13:51:09.946Z,1.40
2019-04-24T13:53:56.732Z,1.70
2019-04-24T13:56:03.361Z,2.00
2019-04-24T13:58:44.314Z,1.65
2019-04-24T14:12:19.172Z,1.60
2019-04-24T14:21:46.060Z,1.90
2019-04-24T14:24:17.206Z,1.77
2019-04-24T14:26:43.861Z,1.80
2019-04-24T14:29:13.183Z,1.80
2019-04-24T14:31:44.385Z,1.60
2019-04-24T14:34:19.376Z,1.80
2019-04-24T14:36:44.547Z,1.50
2019-04-24T14:39:19.964Z,1.85
2019-04-24T14:46:52.895Z,1.40
2019-04-24T14:49:30.922Z,1.40
2019-04-24T14:54:15.921Z,1.50
2019-04-24T14:56:53.358Z,1.07
2019-04-24T15:01:56.361Z,1.27
2019-04-24T15:04:18.968Z,1.70
2019-04-24T15:12:06.769Z,0.75
2019-04-24T15:15:01.830Z,1.35
2019-04-24T15:17:01.889Z,0.95
2019-04-24T15:19:35.038Z,0.88
2019-04-24T15:22:13.573Z,1.20
2019-04-24T15:26:57.827Z,0.98
2019-04-24T15:29:26.111Z,1.10
2019-04-24T15:32:09.201Z,1.00
2019-04-24T15:34:33.403Z,1.37
2019-04-24T15:37:09.844Z,0.90
2019-04-24T15:39:43.044Z,0.95
2019-04-24T15:42:02.273Z,0.90
2019-04-24T15:44:33.097Z,1.25
2019-04-24T15:51:34.813Z,1.10
2019-04-24T15:54:01.217Z,1.10
2019-04-24T15:56:29.708Z,1.10
2019-04-24T15:59:16.614Z,1.30
2019-04-24T16:02:04.462Z,1.17
2019-04-24T16:06:32.267Z,1.30
2019-04-24T16:09:02.381Z,1.25
2019-04-24T16:11:31.273Z,1.10
2019-04-24T16:14:10.254Z,1.85
2019-04-24T16:17:05.842Z,1.45
2019-04-24T16:22:09.286Z,1.57
2019-04-24T16:26:59.470Z,1.80
2019-04-24T16:29:21.323Z,2.25
2019-04-24T16:37:06.463Z,1.67
2019-04-24T16:39:21.067Z,1.80
2019-04-24T16:42:41.091Z,1.80
2019-04-24T16:44:48.048Z,2.00
2019-04-24T16:47:13.527Z,2.10
2019-04-24T16:50:18.225Z,1.72
2019-04-24T16:54:48.764Z,1.50
2019-04-24T16:57:22.528Z,2.05
2019-04-24T16:59:51.905Z,1.70
2019-04-24T17:02:12.411Z,1.70
2019-04-24T17:05:16.603Z,1.27
2019-04-24T17:07:16.324Z,1.20
2019-04-24T17:09:57.771Z,1.00
2019-04-24T17:12:19.144Z,0.70
2019-04-24T17:14:48.312Z,0.42
2019-04-24T17:20:03.606Z,0.50
2019-04-24T17:22:28.962Z,0.50
2019-04-24T17:25:01.089Z,0.30
2019-04-24T17:32:39.647Z,0.50
2019-04-24T17:35:13.318Z,0.57
2019-04-24T17:37:03.026Z,0.45
2019-04-24T17:39:39.449Z,0.60
2019-04-24T17:42:22.396Z,0.57
2019-04-24T17:45:10.755Z,0.50
2019-04-24T17:47:39.974Z,0.50
2019-04-24T17:52:48.607Z,0.57
2019-04-24T17:55:04.538Z,0.70
2019-04-24T17:59:43.803Z,0.50
2019-04-24T18:02:14.580Z,0.70
2019-04-24T18:04:43.271Z,0.60
2019-04-24T18:07:14.474Z,0.70
2019-04-24T18:09:42.746Z,0.53
2019-04-24T18:12:12.776Z,0.60
2019-04-24T18:14:41.490Z,0.80
2019-04-24T18:17:10.918Z,0.90
2019-04-24T18:19:40.070Z,0.80
2019-04-24T18:22:09.251Z,0.72
2019-04-24T18:24:52.161Z,0.70
2019-04-24T18:27:25.533Z,0.60
2019-04-24T18:29:53.997Z,0.82
2019-04-24T18:32:24.345Z,0.60
2019-04-24T18:34:52.897Z,0.70
2019-04-24T18:37:21.525Z,0.70
2019-04-24T18:39:51.344Z,0.90
2019-04-24T18:42:21.293Z,0.82
2019-04-24T18:44:49.916Z,0.82
2019-04-24T18:47:18.380Z,0.70
2019-04-24T18:49:46.979Z,0.78
2019-04-24T18:52:15.513Z,0.88
2019-04-24T18:54:44.074Z,1.22
2019-04-24T18:57:12.933Z,0.80
2019-04-24T18:59:43.163Z,0.82
2019-04-24T19:02:12.959Z,0.90
2019-04-24T19:04:41.857Z,0.80
2019-04-24T19:07:11.029Z,0.80
2019-04-24T19:09:39.539Z,0.85
2019-04-24T19:12:09.020Z,1.10
2019-04-24T19:14:37.684Z,0.80
2019-04-24T19:17:07.720Z,1.00
2019-04-24T19:19:36.418Z,0.72
2019-04-24T19:22:08.252Z,0.93
2019-04-24T19:24:37.004Z,0.90
2019-04-24T19:27:05.549Z,0.80
2019-04-24T19:29:34.081Z,0.68
2019-04-24T19:32:02.708Z,0.70
2019-04-24T19:34:32.579Z,0.70
2019-04-24T19:37:01.313Z,0.98
2019-04-24T19:39:29.869Z,0.77
2019-04-24T19:41:58.329Z,1.00
2019-04-24T19:44:26.798Z,1.10
2019-04-24T19:46:55.349Z,0.65
2019-04-24T19:49:26.047Z,1.00
2019-04-24T19:51:53.985Z,0.70
2019-04-24T19:54:22.975Z,0.90
2019-04-24T19:56:51.933Z,0.75
2019-04-24T19:59:21.007Z,0.88
2019-04-24T20:01:50.641Z,0.70
2019-04-24T20:04:19.529Z,0.90
2019-04-24T20:06:48.012Z,0.70
2019-04-24T20:09:27.323Z,0.72
2019-04-24T20:11:56.990Z,0.70
2019-04-24T20:14:25.445Z,0.70
2019-04-24T20:16:53.937Z,0.80
2019-04-24T20:19:23.003Z,1.00
2019-04-24T20:21:52.419Z,0.90
2019-04-24T20:24:21.564Z,0.80
2019-04-24T20:26:50.451Z,0.80
2019-04-24T20:29:20.648Z,0.68
2019-04-24T20:31:51.628Z,0.75
2019-04-24T20:34:22.157Z,0.75
2019-04-24T20:36:51.624Z,0.70
2019-04-24T20:39:21.538Z,0.80
2019-04-24T20:41:51.931Z,0.80
2019-04-24T20:44:20.500Z,0.90
2019-04-24T20:46:48.959Z,0.65
2019-04-24T20:49:18.029Z,0.70
2019-04-24T20:51:46.656Z,0.70
2019-04-24T20:54:15.189Z,0.70
2019-04-24T20:56:43.649Z,0.95
2019-04-24T20:59:12.659Z,0.90
2019-04-24T21:01:41.817Z,1.10
2019-04-24T21:04:11.819Z,1.10
2019-04-24T21:06:42.352Z,1.07
2019-04-24T21:09:29.124Z,0.90
2019-04-24T21:11:57.701Z,0.90
2019-04-24T21:14:26.758Z,0.70
2019-04-24T21:16:55.355Z,0.85
2019-04-24T21:19:24.809Z,0.70
2019-04-24T21:21:53.708Z,0.90
2019-04-24T21:24:25.730Z,0.80
2019-04-24T21:26:52.404Z,0.82
2019-04-24T21:29:23.262Z,0.70
2019-04-24T21:31:51.767Z,0.90
2019-04-24T21:34:22.262Z,1.07
2019-04-24T21:36:52.124Z,0.80
2019-04-24T21:39:23.216Z,1.20
2019-04-24T21:41:51.625Z,1.00
2019-04-24T21:44:23.689Z,1.07
2019-04-24T21:46:52.360Z,1.10
2019-04-24T21:49:22.428Z,1.20
2019-04-24T21:51:51.595Z,0.90
2019-04-24T21:54:21.428Z,0.90
2019-04-24T21:56:51.331Z,1.00
2019-04-24T21:59:21.487Z,1.00
2019-04-24T22:02:11.184Z,1.05
2019-04-24T22:04:42.431Z,1.15
2019-04-24T22:07:12.692Z,0.82
2019-04-24T22:09:42.450Z,1.10
2019-04-24T22:12:11.267Z,0.90
2019-04-24T22:14:40.043Z,1.07
2019-04-24T22:17:09.137Z,0.95
2019-04-24T22:19:38.241Z,1.30
2019-04-24T22:22:11.625Z,0.93
2019-04-24T22:24:41.823Z,1.00
2019-04-24T22:27:12.155Z,1.00
2019-04-24T22:29:40.749Z,1.17
2019-04-24T22:32:27.409Z,0.80
2019-04-24T22:35:06.304Z,0.90
2019-04-24T22:37:35.330Z,0.90
2019-04-24T22:40:17.146Z,1.15
2019-04-24T22:42:46.053Z,0.90
2019-04-24T22:45:15.316Z,0.98
2019-04-24T22:47:44.126Z,0.93
2019-04-24T22:50:13.152Z,1.00
2019-04-24T22:52:41.680Z,0.93
2019-04-24T22:55:15.753Z,1.10
2019-04-24T22:57:45.784Z,1.00
2019-04-24T23:00:18.692Z,1.10
2019-04-24T23:02:47.162Z,0.82
2019-04-24T23:05:15.725Z,1.07
2019-04-24T23:07:44.193Z,1.30
2019-04-24T23:10:13.045Z,1.07
2019-04-24T23:12:41.853Z,0.85
2019-04-24T23:15:10.815Z,1.12
2019-04-24T23:17:40.303Z,1.00
2019-04-24T23:20:11.519Z,1.20
2019-04-24T23:22:59.837Z,1.00
2019-04-24T23:25:36.146Z,0.90
2019-04-24T23:28:33.038Z,1.17
2019-04-24T23:31:12.075Z,1.00
2019-04-24T23:33:44.741Z,0.90
2019-04-24T23:36:12.500Z,1.20
2019-04-24T23:38:41.933Z,1.00
2019-04-24T23:41:12.831Z,1.17
2019-04-24T23:43:41.538Z,1.02
2019-04-24T23:46:11.582Z,1.20
2019-04-24T23:48:41.554Z,1.10
2019-04-24T23:51:10.626Z,1.20
2019-04-24T23:53:39.591Z,1.20
2019-04-24T23:56:08.645Z,1.20
2019-04-24T23:58:37.766Z,1.20
